Iwojima, Iwo Jima Airport (RJAW)

NameIwo Jima Airport
CityIwojima
CountryJapan
ICAORJAW
IATAIWO
Altitude117 m
CoordinatesGoogle Map
Live Air TrafficLiveATC.net
METARRJAW 160600Z 15013KT 9999 SCT010 BKN230 29/26 Q1001 RMK 4CU010 A2957
2019-09-16 06:00:00 Wind: Southeast (150°) 6.69 m/s - Visibility: > 10000 m - Temperature: 29 °C - Dew point: 26 °C - Humidity: 83.9% - Pressure: 1001 hPa

Sorry, no flights used the airport in this database.